sensor_id;sensor_type;location;lat;lon;timestamp;pressure;altitude;pressure_sealevel;temperature;humidity
9538;BME280;4807;48.024;11.726;2022-12-10T00:03:07;93624.66;;;1.09;82.57
9538;BME280;4807;48.024;11.726;2022-12-10T00:06:18;93621.88;;;1.10;83.11
9538;BME280;4807;48.024;11.726;2022-12-10T00:09:27;93623.88;;;1.23;81.79
9538;BME280;4807;48.024;11.726;2022-12-10T00:12:35;93626.13;;;1.11;82.14
9538;BME280;4807;48.024;11.726;2022-12-10T00:15:45;93629.47;;;1.05;82.34
9538;BME280;4807;48.024;11.726;2022-12-10T00:18:54;93642.69;;;0.89;82.86
9538;BME280;4807;48.024;11.726;2022-12-10T00:22:02;93636.19;;;0.77;83.37
9538;BME280;4807;48.024;11.726;2022-12-10T00:25:11;93631.94;;;0.76;83.19
9538;BME280;4807;48.024;11.726;2022-12-10T00:28:19;93631.53;;;0.64;83.84
9538;BME280;4807;48.024;11.726;2022-12-10T00:31:31;93637.31;;;0.52;84.59
9538;BME280;4807;48.024;11.726;2022-12-10T00:34:40;93631.44;;;0.50;84.53
9538;BME280;4807;48.024;11.726;2022-12-10T00:37:48;93622.25;;;0.54;85.88
9538;BME280;4807;48.024;11.726;2022-12-10T00:40:56;93620.25;;;0.64;85.81
9538;BME280;4807;48.024;11.726;2022-12-10T00:44:05;93638.88;;;0.69;85.16
9538;BME280;4807;48.024;11.726;2022-12-10T00:47:15;93637.00;;;0.55;84.72
9538;BME280;4807;48.024;11.726;2022-12-10T00:50:23;93636.88;;;0.48;84.81
9538;BME280;4807;48.024;11.726;2022-12-10T00:53:34;93647.41;;;0.32;85.55
9538;BME280;4807;48.024;11.726;2022-12-10T00:56:44;93646.59;;;0.31;86.02
9538;BME280;4807;48.024;11.726;2022-12-10T00:59:54;93652.81;;;0.30;85.59
9538;BME280;4807;48.024;11.726;2022-12-10T01:03:04;93658.91;;;0.23;86.01
9538;BME280;4807;48.024;11.726;2022-12-10T01:06:16;93662.97;;;0.25;86.72
9538;BME280;4807;48.024;11.726;2022-12-10T01:09:28;93661.97;;;0.26;86.16
9538;BME280;4807;48.024;11.726;2022-12-10T01:12:37;93668.16;;;0.33;86.25
9538;BME280;4807;48.024;11.726;2022-12-10T01:15:45;93669.16;;;0.41;86.25
9538;BME280;4807;48.024;11.726;2022-12-10T01:18:57;93659.78;;;0.46;86.27
9538;BME280;4807;48.024;11.726;2022-12-10T01:22:06;93658.31;;;0.44;85.44
9538;BME280;4807;48.024;11.726;2022-12-10T01:25:16;93653.72;;;0.46;86.58
9538;BME280;4807;48.024;11.726;2022-12-10T01:28:24;93650.75;;;0.57;86.93
9538;BME280;4807;48.024;11.726;2022-12-10T01:31:35;93655.22;;;0.71;86.03
9538;BME280;4807;48.024;11.726;2022-12-10T01:34:46;93657.69;;;0.72;86.17
9538;BME280;4807;48.024;11.726;2022-12-10T01:37:55;93661.69;;;0.83;85.84
9538;BME280;4807;48.024;11.726;2022-12-10T01:41:05;93657.22;;;0.92;85.08
9538;BME280;4807;48.024;11.726;2022-12-10T01:44:58;93660.75;;;0.99;84.65
9538;BME280;4807;48.024;11.726;2022-12-10T01:48:07;93653.66;;;1.07;83.73
9538;BME280;4807;48.024;11.726;2022-12-10T01:51:18;93666.72;;;1.15;83.51
9538;BME280;4807;48.024;11.726;2022-12-10T01:54:31;93679.75;;;1.01;83.14
9538;BME280;4807;48.024;11.726;2022-12-10T01:57:39;93688.00;;;0.90;83.28
9538;BME280;4807;48.024;11.726;2022-12-10T02:01:03;93690.38;;;0.76;84.42
9538;BME280;4807;48.024;11.726;2022-12-10T02:04:22;93688.34;;;0.64;84.31
9538;BME280;4807;48.024;11.726;2022-12-10T02:07:54;93685.28;;;0.52;84.86
9538;BME280;4807;48.024;11.726;2022-12-10T02:11:14;93690.41;;;0.37;86.15
9538;BME280;4807;48.024;11.726;2022-12-10T02:14:29;93688.81;;;0.28;86.12
9538;BME280;4807;48.024;11.726;2022-12-10T02:17:45;93676.50;;;0.37;86.66
9538;BME280;4807;48.024;11.726;2022-12-10T02:21:00;93680.38;;;0.49;87.05
9538;BME280;4807;48.024;11.726;2022-12-10T02:24:20;93686.53;;;0.64;87.06
9538;BME280;4807;48.024;11.726;2022-12-10T02:27:42;93678.03;;;0.62;84.92
9538;BME280;4807;48.024;11.726;2022-12-10T02:30:54;93676.34;;;0.69;85.61
9538;BME280;4807;48.024;11.726;2022-12-10T02:34:06;93665.72;;;0.71;86.60
9538;BME280;4807;48.024;11.726;2022-12-10T02:37:21;93672.97;;;0.84;85.17
9538;BME280;4807;48.024;11.726;2022-12-10T02:40:38;93671.59;;;0.73;84.08
9538;BME280;4807;48.024;11.726;2022-12-10T02:43:58;93672.22;;;0.75;85.53
9538;BME280;4807;48.024;11.726;2022-12-10T02:47:11;93673.16;;;0.82;85.59
9538;BME280;4807;48.024;11.726;2022-12-10T02:50:24;93674.75;;;0.91;84.44
9538;BME280;4807;48.024;11.726;2022-12-10T02:53:33;93673.09;;;0.90;83.58
9538;BME280;4807;48.024;11.726;2022-12-10T02:56:50;93669.22;;;0.86;84.65
9538;BME280;4807;48.024;11.726;2022-12-10T03:00:08;93663.44;;;0.91;84.67
9538;BME280;4807;48.024;11.726;2022-12-10T03:03:39;93662.69;;;0.82;84.76
9538;BME280;4807;48.024;11.726;2022-12-10T03:07:01;93652.72;;;1.00;84.64
9538;BME280;4807;48.024;11.726;2022-12-10T03:10:22;93664.75;;;0.95;84.51
9538;BME280;4807;48.024;11.726;2022-12-10T03:13:37;93654.91;;;0.97;84.76
9538;BME280;4807;48.024;11.726;2022-12-10T03:16:51;93666.66;;;1.01;85.04
9538;BME280;4807;48.024;11.726;2022-12-10T03:20:06;93659.88;;;1.06;84.32
9538;BME280;4807;48.024;11.726;2022-12-10T03:23:19;93662.88;;;1.03;83.46
9538;BME280;4807;48.024;11.726;2022-12-10T03:26:28;93658.47;;;1.04;83.91
9538;BME280;4807;48.024;11.726;2022-12-10T03:29:41;93658.09;;;1.07;82.98
9538;BME280;4807;48.024;11.726;2022-12-10T03:32:52;93657.97;;;1.00;83.85
9538;BME280;4807;48.024;11.726;2022-12-10T03:36:03;93655.06;;;0.95;84.42
9538;BME280;4807;48.024;11.726;2022-12-10T03:39:13;93654.19;;;1.03;83.52
9538;BME280;4807;48.024;11.726;2022-12-10T03:42:22;93643.72;;;1.03;84.23
9538;BME280;4807;48.024;11.726;2022-12-10T03:45:30;93644.38;;;1.05;83.65
9538;BME280;4807;48.024;11.726;2022-12-10T03:48:38;93649.72;;;1.11;83.77
9538;BME280;4807;48.024;11.726;2022-12-10T03:51:48;93654.47;;;1.08;83.40
9538;BME280;4807;48.024;11.726;2022-12-10T03:54:56;93651.03;;;1.07;82.96
9538;BME280;4807;48.024;11.726;2022-12-10T03:58:04;93642.19;;;1.08;82.91
9538;BME280;4807;48.024;11.726;2022-12-10T04:01:13;93647.16;;;1.03;83.22
9538;BME280;4807;48.024;11.726;2022-12-10T04:04:22;93641.69;;;1.13;82.69
9538;BME280;4807;48.024;11.726;2022-12-10T04:07:31;93652.78;;;1.15;82.90
9538;BME280;4807;48.024;11.726;2022-12-10T04:10:40;93649.81;;;1.18;82.88
9538;BME280;4807;48.024;11.726;2022-12-10T04:13:48;93650.53;;;1.12;82.96
9538;BME280;4807;48.024;11.726;2022-12-10T04:17:14;93653.31;;;1.10;82.81
9538;BME280;4807;48.024;11.726;2022-12-10T04:20:22;93647.00;;;1.05;82.70
9538;BME280;4807;48.024;11.726;2022-12-10T04:23:49;93654.66;;;1.06;81.98
9538;BME280;4807;48.024;11.726;2022-12-10T04:27:20;93658.78;;;1.01;82.65
9538;BME280;4807;48.024;11.726;2022-12-10T04:30:29;93663.91;;;0.94;82.83
9538;BME280;4807;48.024;11.726;2022-12-10T04:33:38;93662.34;;;0.85;83.69
9538;BME280;4807;48.024;11.726;2022-12-10T04:36:47;93666.25;;;0.89;83.86
9538;BME280;4807;48.024;11.726;2022-12-10T04:39:56;93650.88;;;0.86;83.79
9538;BME280;4807;48.024;11.726;2022-12-10T04:43:05;93651.84;;;0.85;83.65
9538;BME280;4807;48.024;11.726;2022-12-10T04:46:13;93649.84;;;0.95;83.27
9538;BME280;4807;48.024;11.726;2022-12-10T04:49:22;93643.59;;;0.96;83.63
9538;BME280;4807;48.024;11.726;2022-12-10T04:52:30;93651.91;;;1.00;83.67
9538;BME280;4807;48.024;11.726;2022-12-10T04:55:40;93649.94;;;1.02;82.75
9538;BME280;4807;48.024;11.726;2022-12-10T04:58:48;93654.09;;;0.96;83.46
9538;BME280;4807;48.024;11.726;2022-12-10T05:01:57;93660.81;;;0.91;82.45
9538;BME280;4807;48.024;11.726;2022-12-10T05:05:06;93656.25;;;0.62;83.58
9538;BME280;4807;48.024;11.726;2022-12-10T05:08:15;93657.53;;;0.66;84.36
9538;BME280;4807;48.024;11.726;2022-12-10T05:11:28;93657.38;;;0.67;84.35
9538;BME280;4807;48.024;11.726;2022-12-10T05:14:44;93666.25;;;0.58;84.19
9538;BME280;4807;48.024;11.726;2022-12-10T05:17:52;93658.91;;;0.54;85.07
9538;BME280;4807;48.024;11.726;2022-12-10T05:21:03;93650.38;;;0.60;84.80
9538;BME280;4807;48.024;11.726;2022-12-10T05:24:12;93653.31;;;0.65;85.31
9538;BME280;4807;48.024;11.726;2022-12-10T05:27:21;93658.19;;;0.68;84.34
9538;BME280;4807;48.024;11.726;2022-12-10T05:30:29;93665.47;;;0.50;84.66
9538;BME280;4807;48.024;11.726;2022-12-10T05:33:37;93659.66;;;0.40;85.33
9538;BME280;4807;48.024;11.726;2022-12-10T05:36:46;93658.19;;;0.37;85.74
9538;BME280;4807;48.024;11.726;2022-12-10T05:39:54;93664.38;;;0.44;85.75
9538;BME280;4807;48.024;11.726;2022-12-10T05:43:04;93664.06;;;0.39;85.34
9538;BME280;4807;48.024;11.726;2022-12-10T05:46:15;93669.19;;;0.32;85.89
9538;BME280;4807;48.024;11.726;2022-12-10T05:49:24;93668.69;;;0.29;86.41
9538;BME280;4807;48.024;11.726;2022-12-10T05:52:33;93671.84;;;0.24;86.10
9538;BME280;4807;48.024;11.726;2022-12-10T05:55:43;93675.06;;;0.26;86.67
9538;BME280;4807;48.024;11.726;2022-12-10T05:59:12;93686.50;;;0.33;87.24
9538;BME280;4807;48.024;11.726;2022-12-10T06:02:24;93674.81;;;0.52;86.74
9538;BME280;4807;48.024;11.726;2022-12-10T06:05:58;93682.25;;;0.41;85.22
9538;BME280;4807;48.024;11.726;2022-12-10T06:09:13;93679.25;;;0.44;86.22
9538;BME280;4807;48.024;11.726;2022-12-10T06:12:23;93689.53;;;0.53;86.33
9538;BME280;4807;48.024;11.726;2022-12-10T06:15:38;93687.41;;;0.57;85.71
9538;BME280;4807;48.024;11.726;2022-12-10T06:18:47;93688.09;;;0.43;85.23
9538;BME280;4807;48.024;11.726;2022-12-10T06:21:55;93682.84;;;0.43;85.56
9538;BME280;4807;48.024;11.726;2022-12-10T06:25:06;93686.28;;;0.43;86.05
9538;BME280;4807;48.024;11.726;2022-12-10T06:28:14;93677.59;;;0.51;86.45
9538;BME280;4807;48.024;11.726;2022-12-10T06:31:24;93675.91;;;0.58;86.10
9538;BME280;4807;48.024;11.726;2022-12-10T06:34:32;93671.31;;;0.60;86.18
9538;BME280;4807;48.024;11.726;2022-12-10T06:37:49;93677.50;;;0.67;85.67
9538;BME280;4807;48.024;11.726;2022-12-10T06:40:58;93683.09;;;0.64;85.33
9538;BME280;4807;48.024;11.726;2022-12-10T06:44:07;93682.13;;;0.65;85.74
9538;BME280;4807;48.024;11.726;2022-12-10T06:47:17;93681.88;;;0.74;85.35
9538;BME280;4807;48.024;11.726;2022-12-10T06:50:25;93690.56;;;0.75;84.33
9538;BME280;4807;48.024;11.726;2022-12-10T06:53:35;93690.56;;;0.75;85.50
9538;BME280;4807;48.024;11.726;2022-12-10T06:56:44;93698.28;;;0.68;84.77
9538;BME280;4807;48.024;11.726;2022-12-10T06:59:53;93695.38;;;0.63;84.82
9538;BME280;4807;48.024;11.726;2022-12-10T07:03:02;93702.06;;;0.66;85.11
9538;BME280;4807;48.024;11.726;2022-12-10T07:06:11;93700.22;;;0.74;85.28
9538;BME280;4807;48.024;11.726;2022-12-10T07:09:20;93695.28;;;0.80;85.52
9538;BME280;4807;48.024;11.726;2022-12-10T07:12:28;93690.13;;;0.94;84.97
9538;BME280;4807;48.024;11.726;2022-12-10T07:15:36;93687.44;;;1.02;84.27
9538;BME280;4807;48.024;11.726;2022-12-10T07:18:47;93694.25;;;0.89;83.97
9538;BME280;4807;48.024;11.726;2022-12-10T07:21:58;93697.91;;;0.80;84.55
9538;BME280;4807;48.024;11.726;2022-12-10T07:25:08;93697.59;;;0.74;84.41
9538;BME280;4807;48.024;11.726;2022-12-10T07:28:16;93699.41;;;0.74;84.57
9538;BME280;4807;48.024;11.726;2022-12-10T07:31:25;93687.94;;;0.75;84.43
9538;BME280;4807;48.024;11.726;2022-12-10T07:34:35;93681.06;;;0.74;84.16
9538;BME280;4807;48.024;11.726;2022-12-10T07:37:43;93681.06;;;0.74;84.28
9538;BME280;4807;48.024;11.726;2022-12-10T07:40:52;93694.66;;;0.77;83.82
9538;BME280;4807;48.024;11.726;2022-12-10T07:44:00;93691.28;;;0.61;83.98
9538;BME280;4807;48.024;11.726;2022-12-10T07:47:08;93682.16;;;0.57;84.68
9538;BME280;4807;48.024;11.726;2022-12-10T07:50:18;93696.50;;;0.69;84.54
9538;BME280;4807;48.024;11.726;2022-12-10T07:53:26;93691.63;;;0.58;84.83
9538;BME280;4807;48.024;11.726;2022-12-10T07:56:35;93694.81;;;0.76;85.24
9538;BME280;4807;48.024;11.726;2022-12-10T07:59:43;93698.03;;;0.86;84.88
9538;BME280;4807;48.024;11.726;2022-12-10T08:02:51;93683.78;;;1.11;84.04
9538;BME280;4807;48.024;11.726;2022-12-10T08:06:03;93680.56;;;1.24;83.16
9538;BME280;4807;48.024;11.726;2022-12-10T08:09:12;93682.78;;;1.35;81.94
9538;BME280;4807;48.024;11.726;2022-12-10T08:12:20;93680.44;;;1.40;82.05
9538;BME280;4807;48.024;11.726;2022-12-10T08:15:28;93680.84;;;1.52;81.57
9538;BME280;4807;48.024;11.726;2022-12-10T08:18:37;93695.09;;;1.72;80.84
9538;BME280;4807;48.024;11.726;2022-12-10T08:21:47;93691.03;;;1.47;81.19
9538;BME280;4807;48.024;11.726;2022-12-10T08:24:55;93690.72;;;1.65;81.53
9538;BME280;4807;48.024;11.726;2022-12-10T08:28:04;93700.09;;;1.82;80.40
9538;BME280;4807;48.024;11.726;2022-12-10T08:31:13;93700.44;;;1.79;80.79
9538;BME280;4807;48.024;11.726;2022-12-10T08:34:23;93706.69;;;1.78;80.49
9538;BME280;4807;48.024;11.726;2022-12-10T08:37:34;93706.19;;;1.60;80.49
9538;BME280;4807;48.024;11.726;2022-12-10T08:40:42;93711.22;;;1.69;80.47
9538;BME280;4807;48.024;11.726;2022-12-10T08:43:52;93710.16;;;1.78;80.49
9538;BME280;4807;48.024;11.726;2022-12-10T08:47:01;93711.38;;;1.68;79.88
9538;BME280;4807;48.024;11.726;2022-12-10T08:50:10;93713.19;;;1.67;80.16
9538;BME280;4807;48.024;11.726;2022-12-10T08:53:20;93717.75;;;1.50;79.83
9538;BME280;4807;48.024;11.726;2022-12-10T08:56:29;93715.66;;;1.46;80.94
9538;BME280;4807;48.024;11.726;2022-12-10T08:59:37;93717.84;;;1.57;80.98
9538;BME280;4807;48.024;11.726;2022-12-10T09:02:46;93716.59;;;1.53;80.34
9538;BME280;4807;48.024;11.726;2022-12-10T09:05:54;93717.72;;;1.73;80.05
9538;BME280;4807;48.024;11.726;2022-12-10T09:09:04;93725.81;;;1.86;79.35
9538;BME280;4807;48.024;11.726;2022-12-10T09:12:12;93726.06;;;1.77;78.87
9538;BME280;4807;48.024;11.726;2022-12-10T09:15:21;93737.91;;;1.87;79.85
9538;BME280;4807;48.024;11.726;2022-12-10T09:18:29;93742.03;;;2.05;79.29
9538;BME280;4807;48.024;11.726;2022-12-10T09:21:37;93734.63;;;2.23;79.06
9538;BME280;4807;48.024;11.726;2022-12-10T09:24:47;93735.78;;;2.20;77.38
9538;BME280;4807;48.024;11.726;2022-12-10T09:27:55;93739.31;;;2.13;77.72
9538;BME280;4807;48.024;11.726;2022-12-10T09:31:05;93746.81;;;1.86;78.23
9538;BME280;4807;48.024;11.726;2022-12-10T09:34:22;93738.41;;;2.06;78.93
9538;BME280;4807;48.024;11.726;2022-12-10T09:37:31;93742.31;;;2.10;78.90
9538;BME280;4807;48.024;11.726;2022-12-10T09:40:47;93734.16;;;2.19;77.93
9538;BME280;4807;48.024;11.726;2022-12-10T09:44:05;93737.88;;;2.10;78.37
9538;BME280;4807;48.024;11.726;2022-12-10T09:47:17;93741.75;;;2.00;78.89
9538;BME280;4807;48.024;11.726;2022-12-10T09:50:30;93743.00;;;1.89;78.82
9538;BME280;4807;48.024;11.726;2022-12-10T09:53:46;93741.75;;;2.00;79.10
9538;BME280;4807;48.024;11.726;2022-12-10T09:56:58;93739.50;;;2.11;79.36
9538;BME280;4807;48.024;11.726;2022-12-10T10:00:20;93732.66;;;2.25;79.27
9538;BME280;4807;48.024;11.726;2022-12-10T10:03:36;93725.59;;;2.40;78.24
9538;BME280;4807;48.024;11.726;2022-12-10T10:06:45;93730.75;;;2.34;77.58
9538;BME280;4807;48.024;11.726;2022-12-10T10:09:59;93722.59;;;2.28;77.78
9538;BME280;4807;48.024;11.726;2022-12-10T10:13:21;93725.28;;;2.20;78.02
9538;BME280;4807;48.024;11.726;2022-12-10T10:16:36;93728.66;;;2.29;78.11
9538;BME280;4807;48.024;11.726;2022-12-10T10:19:47;93731.53;;;2.19;77.37
9538;BME280;4807;48.024;11.726;2022-12-10T10:22:58;93731.44;;;2.13;77.89
9538;BME280;4807;48.024;11.726;2022-12-10T10:26:07;93718.16;;;2.14;78.23
9538;BME280;4807;48.024;11.726;2022-12-10T10:29:20;93720.84;;;2.21;78.76
9538;BME280;4807;48.024;11.726;2022-12-10T10:32:47;93727.09;;;2.20;78.58
9538;BME280;4807;48.024;11.726;2022-12-10T10:35:58;93722.78;;;2.27;78.09
9538;BME280;4807;48.024;11.726;2022-12-10T10:39:23;93722.50;;;2.37;77.73
9538;BME280;4807;48.024;11.726;2022-12-10T10:42:37;93721.59;;;2.44;77.34
9538;BME280;4807;48.024;11.726;2022-12-10T10:45:52;93718.44;;;2.49;77.19
9538;BME280;4807;48.024;11.726;2022-12-10T10:49:19;93718.78;;;2.60;76.50
9538;BME280;4807;48.024;11.726;2022-12-10T10:52:37;93719.78;;;2.59;76.10
9538;BME280;4807;48.024;11.726;2022-12-10T10:55:45;93719.53;;;2.40;77.32
9538;BME280;4807;48.024;11.726;2022-12-10T10:58:58;93711.91;;;2.45;77.22
9538;BME280;4807;48.024;11.726;2022-12-10T11:02:20;93705.56;;;2.54;76.68
9538;BME280;4807;48.024;11.726;2022-12-10T11:05:31;93711.28;;;2.57;76.80
9538;BME280;4807;48.024;11.726;2022-12-10T11:08:44;93691.19;;;2.86;76.40
9538;BME280;4807;48.024;11.726;2022-12-10T11:12:00;93703.97;;;2.89;74.81
9538;BME280;4807;48.024;11.726;2022-12-10T11:15:33;93704.63;;;2.76;76.08
9538;BME280;4807;48.024;11.726;2022-12-10T11:18:52;93702.69;;;2.85;75.98
9538;BME280;4807;48.024;11.726;2022-12-10T11:22:17;93693.34;;;2.97;75.48
9538;BME280;4807;48.024;11.726;2022-12-10T11:25:43;93702.47;;;3.01;75.38
9538;BME280;4807;48.024;11.726;2022-12-10T11:29:08;93706.56;;;3.03;75.42
9538;BME280;4807;48.024;11.726;2022-12-10T11:32:46;93702.28;;;2.81;74.88
9538;BME280;4807;48.024;11.726;2022-12-10T11:36:13;93705.22;;;2.93;75.13
9538;BME280;4807;48.024;11.726;2022-12-10T11:39:44;93704.56;;;3.05;75.05
9538;BME280;4807;48.024;11.726;2022-12-10T11:43:15;93703.28;;;3.16;74.97
9538;BME280;4807;48.024;11.726;2022-12-10T11:46:53;93695.88;;;3.05;74.43
9538;BME280;4807;48.024;11.726;2022-12-10T11:50:25;93696.94;;;3.11;75.38
9538;BME280;4807;48.024;11.726;2022-12-10T11:53:53;93692.72;;;2.95;74.66
9538;BME280;4807;48.024;11.726;2022-12-10T11:57:15;93689.97;;;3.03;74.89
9538;BME280;4807;48.024;11.726;2022-12-10T12:00:27;93690.56;;;3.20;74.76
9538;BME280;4807;48.024;11.726;2022-12-10T12:03:59;93689.75;;;3.19;73.93
9538;BME280;4807;48.024;11.726;2022-12-10T12:07:32;93696.28;;;3.23;74.22
9538;BME280;4807;48.024;11.726;2022-12-10T12:11:01;93693.75;;;3.15;74.52
9538;BME280;4807;48.024;11.726;2022-12-10T12:14:21;93707.75;;;3.01;74.31
9538;BME280;4807;48.024;11.726;2022-12-10T12:17:38;93704.09;;;2.81;75.57
9538;BME280;4807;48.024;11.726;2022-12-10T12:20:53;93712.94;;;2.94;75.48
9538;BME280;4807;48.024;11.726;2022-12-10T12:24:09;93711.44;;;2.71;76.23
9538;BME280;4807;48.024;11.726;2022-12-10T12:27:30;93702.00;;;2.76;75.56
9538;BME280;4807;48.024;11.726;2022-12-10T12:30:43;93707.34;;;2.83;75.84
9538;BME280;4807;48.024;11.726;2022-12-10T12:33:59;93714.50;;;2.89;75.51
9538;BME280;4807;48.024;11.726;2022-12-10T12:37:11;93715.72;;;2.93;75.24
9538;BME280;4807;48.024;11.726;2022-12-10T12:40:29;93725.19;;;2.87;75.52
9538;BME280;4807;48.024;11.726;2022-12-10T12:43:48;93732.38;;;2.64;75.91
9538;BME280;4807;48.024;11.726;2022-12-10T12:47:05;93733.47;;;2.55;76.52
9538;BME280;4807;48.024;11.726;2022-12-10T12:50:28;93733.81;;;2.52;76.72
9538;BME280;4807;48.024;11.726;2022-12-10T12:53:39;93738.81;;;2.32;76.28
9538;BME280;4807;48.024;11.726;2022-12-10T12:57:04;93738.47;;;2.35;77.14
9538;BME280;4807;48.024;11.726;2022-12-10T13:00:19;93738.81;;;2.32;77.17
9538;BME280;4807;48.024;11.726;2022-12-10T13:03:36;93737.00;;;2.33;78.15
9538;BME280;4807;48.024;11.726;2022-12-10T13:07:34;93746.94;;;2.37;77.82
9538;BME280;4807;48.024;11.726;2022-12-10T13:10:51;93746.94;;;2.37;77.49
9538;BME280;4807;48.024;11.726;2022-12-10T13:15:01;93743.97;;;2.25;77.72
9538;BME280;4807;48.024;11.726;2022-12-10T13:18:36;93755.16;;;2.05;77.72
9538;BME280;4807;48.024;11.726;2022-12-10T13:22:03;93755.75;;;1.77;79.47
9538;BME280;4807;48.024;11.726;2022-12-10T13:25:16;93767.66;;;1.11;81.82
9538;BME280;4807;48.024;11.726;2022-12-10T13:28:48;93771.47;;;0.70;83.79
9538;BME280;4807;48.024;11.726;2022-12-10T13:32:03;93774.66;;;0.41;85.49
9538;BME280;4807;48.024;11.726;2022-12-10T13:35:29;93779.91;;;0.41;85.71
9538;BME280;4807;48.024;11.726;2022-12-10T13:38:43;93785.94;;;0.42;85.63
9538;BME280;4807;48.024;11.726;2022-12-10T13:42:28;93792.16;;;0.57;84.91
9538;BME280;4807;48.024;11.726;2022-12-10T13:46:28;93795.34;;;0.75;85.57
9538;BME280;4807;48.024;11.726;2022-12-10T13:49:52;93800.19;;;0.94;85.41
9538;BME280;4807;48.024;11.726;2022-12-10T13:53:17;93804.88;;;0.68;84.54
9538;BME280;4807;48.024;11.726;2022-12-10T13:56:40;93808.88;;;0.40;85.34
9538;BME280;4807;48.024;11.726;2022-12-10T14:00:06;93812.81;;;0.27;86.08
9538;BME280;4807;48.024;11.726;2022-12-10T14:04:01;93807.28;;;0.22;86.48
9538;BME280;4807;48.024;11.726;2022-12-10T14:07:17;93815.59;;;0.34;87.27
9538;BME280;4807;48.024;11.726;2022-12-10T14:10:32;93828.66;;;0.50;87.00
9538;BME280;4807;48.024;11.726;2022-12-10T14:13:47;93818.31;;;0.65;86.37
9538;BME280;4807;48.024;11.726;2022-12-10T14:17:00;93824.16;;;0.75;85.42
9538;BME280;4807;48.024;11.726;2022-12-10T14:20:18;93835.00;;;0.72;84.66
9538;BME280;4807;48.024;11.726;2022-12-10T14:23:30;93835.69;;;0.42;85.98
9538;BME280;4807;48.024;11.726;2022-12-10T14:26:46;93842.28;;;0.21;87.16
9538;BME280;4807;48.024;11.726;2022-12-10T14:30:02;93843.25;;;0.20;87.72
9538;BME280;4807;48.024;11.726;2022-12-10T14:33:17;93853.91;;;0.11;87.73
9538;BME280;4807;48.024;11.726;2022-12-10T14:36:30;93847.38;;;-0.02;87.85
9538;BME280;4807;48.024;11.726;2022-12-10T14:39:40;93852.44;;;0.00;88.75
9538;BME280;4807;48.024;11.726;2022-12-10T14:42:55;93859.94;;;0.03;88.55
9538;BME280;4807;48.024;11.726;2022-12-10T14:46:16;93860.78;;;0.12;88.00
9538;BME280;4807;48.024;11.726;2022-12-10T14:49:26;93863.91;;;0.15;87.62
9538;BME280;4807;48.024;11.726;2022-12-10T14:52:41;93879.75;;;0.06;88.43
9538;BME280;4807;48.024;11.726;2022-12-10T14:55:53;93874.38;;;-0.01;88.67
9538;BME280;4807;48.024;11.726;2022-12-10T14:59:12;93879.91;;;-0.04;88.90
9538;BME280;4807;48.024;11.726;2022-12-10T15:02:28;93888.56;;;-0.04;88.33
9538;BME280;4807;48.024;11.726;2022-12-10T15:05:38;93893.50;;;-0.01;88.71
9538;BME280;4807;48.024;11.726;2022-12-10T15:08:47;93901.16;;;0.09;88.99
9538;BME280;4807;48.024;11.726;2022-12-10T15:11:59;93892.69;;;0.15;88.35
9538;BME280;4807;48.024;11.726;2022-12-10T15:15:16;93904.44;;;0.11;87.85
9538;BME280;4807;48.024;11.726;2022-12-10T15:18:31;93911.16;;;0.22;88.01
9538;BME280;4807;48.024;11.726;2022-12-10T15:21:45;93913.78;;;0.30;87.28
9538;BME280;4807;48.024;11.726;2022-12-10T15:24:55;93915.06;;;0.26;86.76
9538;BME280;4807;48.024;11.726;2022-12-10T15:28:04;93909.00;;;0.17;86.88
9538;BME280;4807;48.024;11.726;2022-12-10T15:31:21;93918.50;;;0.18;86.82
9538;BME280;4807;48.024;11.726;2022-12-10T15:34:41;93922.75;;;0.11;86.74
9538;BME280;4807;48.024;11.726;2022-12-10T15:37:52;93928.34;;;0.08;86.65
9538;BME280;4807;48.024;11.726;2022-12-10T15:41:34;93929.31;;;0.07;87.17
9538;BME280;4807;48.024;11.726;2022-12-10T15:44:46;93928.97;;;0.18;86.36
9538;BME280;4807;48.024;11.726;2022-12-10T15:47:57;93925.72;;;0.16;86.14
9538;BME280;4807;48.024;11.726;2022-12-10T15:51:08;93927.69;;;0.14;86.79
9538;BME280;4807;48.024;11.726;2022-12-10T15:54:27;93932.91;;;0.14;86.95
9538;BME280;4807;48.024;11.726;2022-12-10T15:57:39;93930.97;;;0.16;86.92
9538;BME280;4807;48.024;11.726;2022-12-10T16:00:52;93942.41;;;0.23;87.43
9538;BME280;4807;48.024;11.726;2022-12-10T16:04:01;93944.69;;;0.34;86.40
9538;BME280;4807;48.024;11.726;2022-12-10T16:07:10;93940.94;;;0.29;85.91
9538;BME280;4807;48.024;11.726;2022-12-10T16:10:22;93950.72;;;0.03;86.70
9538;BME280;4807;48.024;11.726;2022-12-10T16:13:34;93952.50;;;-0.06;87.92
9538;BME280;4807;48.024;11.726;2022-12-10T16:16:43;93959.34;;;-0.13;88.33
9538;BME280;4807;48.024;11.726;2022-12-10T16:19:56;93952.47;;;-0.22;88.39
9538;BME280;4807;48.024;11.726;2022-12-10T16:23:05;93956.72;;;-0.21;88.67
9538;BME280;4807;48.024;11.726;2022-12-10T16:26:16;93971.78;;;-0.15;88.93
9538;BME280;4807;48.024;11.726;2022-12-10T16:29:25;93968.88;;;-0.04;88.91
9538;BME280;4807;48.024;11.726;2022-12-10T16:32:33;93970.81;;;-0.06;88.67
9538;BME280;4807;48.024;11.726;2022-12-10T16:35:43;93972.13;;;-0.10;88.02
9538;BME280;4807;48.024;11.726;2022-12-10T16:38:51;93975.22;;;-0.15;88.84
9538;BME280;4807;48.024;11.726;2022-12-10T16:41:59;93970.94;;;-0.24;88.96
9538;BME280;4807;48.024;11.726;2022-12-10T16:48:32;93970.41;;;-0.44;88.52
9538;BME280;4807;48.024;11.726;2022-12-10T16:51:41;93973.44;;;-0.56;88.54
9538;BME280;4807;48.024;11.726;2022-12-10T16:54:50;93985.88;;;-0.58;88.37
9538;BME280;4807;48.024;11.726;2022-12-10T16:57:58;93987.81;;;-0.60;88.46
9538;BME280;4807;48.024;11.726;2022-12-10T17:01:17;93991.56;;;-0.63;89.09
9538;BME280;4807;48.024;11.726;2022-12-10T17:04:27;94000.69;;;-0.67;88.99
9538;BME280;4807;48.024;11.726;2022-12-10T17:07:35;93998.25;;;-0.68;89.01
9538;BME280;4807;48.024;11.726;2022-12-10T17:10:44;93997.06;;;-0.74;88.63
9538;BME280;4807;48.024;11.726;2022-12-10T17:14:20;93993.44;;;-0.81;88.07
9538;BME280;4807;48.024;11.726;2022-12-10T17:17:29;93989.16;;;-0.90;88.09
9538;BME280;4807;48.024;11.726;2022-12-10T17:20:38;93998.25;;;-0.94;87.90
9538;BME280;4807;48.024;11.726;2022-12-10T17:23:47;93996.13;;;-0.99;88.06
9538;BME280;4807;48.024;11.726;2022-12-10T17:27:04;94009.63;;;-1.03;87.84
9538;BME280;4807;48.024;11.726;2022-12-10T17:30:14;94015.63;;;-1.11;88.03
9538;BME280;4807;48.024;11.726;2022-12-10T17:33:23;94016.44;;;-1.10;88.60
9538;BME280;4807;48.024;11.726;2022-12-10T17:36:33;94013.84;;;-1.10;88.59
9538;BME280;4807;48.024;11.726;2022-12-10T17:39:42;94014.16;;;-1.13;88.77